Time;durP1;ratioP1;P1;durP2;ratioP2;P2;SDS_P1;SDS_P2;PMS_P1;PMS_P2;Temp;Humidity;BMP_temperature;BMP_pressure;BME280_temperature;BME280_humidity;BME280_pressure;Samples;Min_cycle;Max_cycle;Signal;HPM_P1;HPM_P2
2021/06/13 00:00:24;;;;;;;;;;;;;;;;;;5070177;28;19924;-64
2021/06/13 00:02:50;;;;;;;;;;;;;;;;;;5069886;28;20015;-64
2021/06/13 00:05:16;;;;;;;;;;;;;;;;;;5069417;28;19932;-64
2021/06/13 00:07:43;;;;;;;;;;;;;;;;;;5071486;28;19925;-64
2021/06/13 00:10:09;;;;;;;;;;;;;;;;;;5077462;28;19924;-64
2021/06/13 00:12:36;;;;;;;;;;;;;;;;;;5069972;28;20022;-64
2021/06/13 00:15:02;;;;;;;;;;;;;;;;;;5073475;28;19977;-64
2021/06/13 00:17:29;;;;;;;;;;;;;;;;;;5072614;28;19947;-64
2021/06/13 00:19:55;;;;;;;;;;;;;;;;;;5076695;28;19947;-64
2021/06/13 00:22:21;;;;;;;;;;;;;;;;;;5069481;28;20265;-64
2021/06/13 00:24:48;;;;;;;;;;;;;;;;;;5071977;28;20388;-64
2021/06/13 00:27:14;;;;;;;;;;;;;;;;;;5072636;28;19931;-64
2021/06/13 00:29:41;;;;;;;;;;;;;;;;;;5075406;28;20029;-64
2021/06/13 00:32:07;;;;;;;;;;;;;;;;;;5068708;28;19985;-64
2021/06/13 00:34:34;;;;;;;;;;;;;;;;;;5070684;28;19924;-64
2021/06/13 00:37:00;;;;;;;;;;;;;;;;;;5071507;28;19928;-64
2021/06/13 00:39:26;;;;;;;;;;;;;;;;;;5074267;28;19932;-64
2021/06/13 00:41:53;;;;;;;;;;;;;;;;;;5078199;28;20431;-64
2021/06/13 00:44:20;;;;;;;;;;;;;;;;;;5068373;28;20043;-64
2021/06/13 00:46:46;;;;;;;;;;;;;;;;;;5070772;28;19967;-64
2021/06/13 00:49:13;;;;;;;;;;;;;;;;;;5071482;28;19924;-64
2021/06/13 00:51:39;;;;;;;;;;;;;;;;;;5071926;28;19935;-64
2021/06/13 00:54:06;;;;;;;;;;;;;;;;;;5076568;28;19938;-64
2021/06/13 00:56:32;;;;;;;;;;;;;;;;;;5072597;28;19933;-64
2021/06/13 00:58:59;;;;;;;;;;;;;;;;;;5079753;28;19931;-64
2021/06/13 01:01:25;;;;;;;;;;;;;;;;;;5087405;28;19924;-64
2021/06/13 01:03:52;;;;;;;;;;;;;;;;;;5074030;28;20270;-63
2021/06/13 01:06:18;;;;;;;;;;;;;;;;;;5077010;28;19925;-63
2021/06/13 01:08:45;;;;;;;;;;;;;;;;;;5081563;28;19928;-63
2021/06/13 01:11:11;;;;;;;;;;;;;;;;;;5077916;28;20392;-63
2021/06/13 01:13:37;;;;;;;;;;;;;;;;;;5078367;28;19935;-64
2021/06/13 01:16:04;;;;;;;;;;;;;;;;;;5070705;28;19924;-63
2021/06/13 01:18:31;;;;;;;;;;;;;;;;;;5081761;28;20398;-64
2021/06/13 01:20:57;;;;;;;;;;;;;;;;;;5074386;28;19929;-63
2021/06/13 01:23:23;;;;;;;;;;;;;;;;;;5074105;28;19930;-63
2021/06/13 01:25:50;;;;;;;;;;;;;;;;;;5075154;28;19928;-63
2021/06/13 01:28:16;;;;;;;;;;;;;;;;;;5076430;28;19928;-63
2021/06/13 01:30:43;;;;;;;;;;;;;;;;;;5073086;28;20291;-63
2021/06/13 01:33:09;;;;;;;;;;;;;;;;;;5077490;28;20398;-63
2021/06/13 01:35:36;;;;;;;;;;;;;;;;;;5076403;28;20335;-63
2021/06/13 01:38:02;;;;;;;;;;;;;;;;;;5075169;28;19924;-63
2021/06/13 01:40:28;;;;;;;;;;;;;;;;;;5078320;28;20453;-63
2021/06/13 01:42:55;;;;;;;;;;;;;;;;;;5081060;28;20391;-63
2021/06/13 01:45:22;;;;;;;;;;;;;;;;;;5074711;28;20171;-63
2021/06/13 01:47:48;;;;;;;;;;;;;;;;;;5078608;28;20291;-63
2021/06/13 01:50:14;;;;;;;;;;;;;;;;;;5069867;28;20376;-63
2021/06/13 01:52:41;;;;;;;;;;;;;;;;;;5071293;28;20599;-63
2021/06/13 01:55:07;;;;;;;;;;;;;;;;;;5073002;28;20391;-63
2021/06/13 01:57:34;;;;;;;;;;;;;;;;;;5075255;28;20385;-63
2021/06/13 02:00:00;;;;;;;;;;;;;;;;;;5069728;28;19928;-63
2021/06/13 02:02:27;;;;;;;;;;;;;;;;;;5074721;28;19950;-63
2021/06/13 02:04:53;;;;;;;;;;;;;;;;;;5075139;28;19977;-63
2021/06/13 02:07:19;;;;;;;;;;;;;;;;;;5075380;28;19924;-63
2021/06/13 02:09:46;;;;;;;;;;;;;;;;;;5073390;28;19931;-63
2021/06/13 02:12:12;;;;;;;;;;;;;;;;;;5077318;28;19930;-64
2021/06/13 02:14:39;;;;;;;;;;;;;;;;;;5073763;28;19927;-63
2021/06/13 02:17:06;;;;;;;;;;;;;;;;;;5070949;28;20277;-63
2021/06/13 02:19:32;;;;;;;;;;;;;;;;;;5073475;28;20054;-64
2021/06/13 02:21:59;;;;;;;;;;;;;;;;;;5080574;28;19993;-63
2021/06/13 02:24:25;;;;;;;;;;;;;;;;;;5082039;28;20372;-64
2021/06/13 02:26:52;;;;;;;;;;;;;;;;;;5068817;28;19925;-63
2021/06/13 02:29:18;;;;;;;;;;;;;;;;;;5073574;28;19924;-63
2021/06/13 02:31:45;;;;;;;;;;;;;;;;;;5079957;28;19924;-64
2021/06/13 02:34:11;;;;;;;;;;;;;;;;;;5076941;28;19925;-63
2021/06/13 02:36:38;;;;;;;;;;;;;;;;;;5075923;28;20276;-64
2021/06/13 02:39:04;;;;;;;;;;;;;;;;;;5075068;28;19924;-63
2021/06/13 02:41:30;;;;;;;;;;;;;;;;;;5071459;28;19933;-64
2021/06/13 02:43:57;;;;;;;;;;;;;;;;;;5077995;28;20067;-63
2021/06/13 02:46:23;;;;;;;;;;;;;;;;;;5072782;28;19931;-63
2021/06/13 02:48:50;;;;;;;;;;;;;;;;;;5076151;28;20319;-63
2021/06/13 02:51:16;;;;;;;;;;;;;;;;;;5078327;28;20295;-63
2021/06/13 02:53:43;;;;;;;;;;;;;;;;;;5073221;28;20388;-64
2021/06/13 02:56:09;;;;;;;;;;;;;;;;;;5079568;28;20427;-63
2021/06/13 02:58:36;;;;;;;;;;;;;;;;;;5078322;28;19933;-63
2021/06/13 03:01:02;;;;;;;;;;;;;;;;;;5073337;28;20104;-63
2021/06/13 03:03:28;;;;;;;;;;;;;;;;;;5072722;28;19924;-63
2021/06/13 03:05:55;;;;;;;;;;;;;;;;;;5071635;28;19928;-63
2021/06/13 03:08:21;;;;;;;;;;;;;;;;;;5071082;28;19940;-63
2021/06/13 03:10:48;;;;;;;;;;;;;;;;;;5070404;28;19929;-63
2021/06/13 03:13:14;;;;;;;;;;;;;;;;;;5070851;28;19925;-63
2021/06/13 03:15:41;;;;;;;;;;;;;;;;;;5083342;22;19939;-63
2021/06/13 03:18:07;;;;;;;;;;;;;;;;;;5051949;28;19971;-65
2021/06/13 03:20:33;;;;;;;;;;;;;;;;;;5050192;28;19925;-65
2021/06/13 03:23:00;;;;;;;;;;;;;;;;;;5056462;28;20381;-66
2021/06/13 03:25:26;;;;;;;;;;;;;;;;;;5050131;28;19932;-66
2021/06/13 03:27:53;;;;;;;;;;;;;;;;;;5052443;28;19933;-65
2021/06/13 03:30:19;;;;;;;;;;;;;;;;;;5048867;28;20385;-65
2021/06/13 03:32:46;;;;;;;;;;;;;;;;;;5050542;28;19925;-65
2021/06/13 03:35:12;;;;;;;;;;;;;;;;;;5047952;28;19931;-66
2021/06/13 03:37:39;;;;;;;;;;;;;;;;;;5043655;28;19925;-65
2021/06/13 03:40:06;;;;;;;;;;;;;;;;;;5048086;28;20023;-65
2021/06/13 03:42:33;;;;;;;;;;;;;;;;;;5050067;28;19925;-66
2021/06/13 03:45:00;;;;;;;;;;;;;;;;;;5049095;28;19933;-65
2021/06/13 03:47:27;;;;;;;;;;;;;;;;;;5053058;28;19939;-66
2021/06/13 03:49:54;;;;;;;;;;;;;;;;;;5050091;28;19925;-64
2021/06/13 03:52:22;;;;;;;;;;;;;;;;;;5048780;28;19929;-65
2021/06/13 03:54:49;;;;;;;;;;;;;;;;;;5054797;28;19988;-65
2021/06/13 03:57:16;;;;;;;;;;;;;;;;;;5056781;28;19931;-65
2021/06/13 03:59:43;;;;;;;;;;;;;;;;;;5054078;28;19924;-65
2021/06/13 04:02:10;;;;;;;;;;;;;;;;;;5059703;28;19925;-66
2021/06/13 04:04:37;;;;;;;;;;;;;;;;;;5055211;28;19924;-64
2021/06/13 04:07:04;;;;;;;;;;;;;;;;;;5053807;28;19947;-65
2021/06/13 04:09:30;;;;;;;;;;;;;;;;;;5049917;28;20323;-64
2021/06/13 04:11:57;;;;;;;;;;;;;;;;;;5048678;28;20296;-64
2021/06/13 04:14:24;;;;;;;;;;;;;;;;;;5050203;28;19933;-64
2021/06/13 04:16:51;;;;;;;;;;;;;;;;;;5050246;28;19928;-63
2021/06/13 04:19:18;;;;;;;;;;;;;;;;;;5049358;28;20023;-64
2021/06/13 04:21:45;;;;;;;;;;;;;;;;;;5049914;28;19931;-64
2021/06/13 04:24:12;;;;;;;;;;;;;;;;;;5051707;28;20011;-64
2021/06/13 04:26:39;;;;;;;;;;;;;;;;;;5047779;28;19947;-64
2021/06/13 04:29:06;;;;;;;;;;;;;;;;;;5053423;28;20011;-64
2021/06/13 04:31:33;;;;;;;;;;;;;;;;;;5048934;28;20293;-64
2021/06/13 04:34:00;;;;;;;;;;;;;;;;;;5046419;28;19925;-64
2021/06/13 04:36:27;;;;;;;;;;;;;;;;;;5051005;28;19935;-64
2021/06/13 04:38:54;;;;;;;;;;;;;;;;;;5063022;28;19933;-64
2021/06/13 04:41:21;;;;;;;;;;;;;;;;;;5058113;28;20355;-64
2021/06/13 04:43:48;;;;;;;;;;;;;;;;;;5054283;28;19925;-64
2021/06/13 04:46:20;;;;;;;;;;;;;;;;;;5055464;28;19952;-64
2021/06/13 04:48:47;;;;;;;;;;;;;;;;;;5047296;28;19924;-64
2021/06/13 04:51:14;;;;;;;;;;;;;;;;;;5046746;28;19924;-65
2021/06/13 04:53:48;;;;;;;;;;;;;;;;;;5038993;28;19935;-64
2021/06/13 04:56:15;;;;;;;;;;;;;;;;;;5052488;28;19933;-64
2021/06/13 04:58:42;;;;;;;;;;;;;;;;;;5043848;28;19925;-65
2021/06/13 05:01:09;;;;;;;;;;;;;;;;;;5041298;28;19925;-64
2021/06/13 05:03:35;;;;;;;;;;;;;;;;;;5039052;28;19925;-66
2021/06/13 05:06:02;;;;;;;;;;;;;;;;;;5042678;28;19952;-68
2021/06/13 05:08:31;;;;;;;;;;;;;;;;;;5052620;28;20308;-66
2021/06/13 05:10:58;;;;;;;;;;;;;;;;;;5035406;28;19932;-65
2021/06/13 05:13:25;;;;;;;;;;;;;;;;;;5034565;28;19924;-65
2021/06/13 05:15:52;;;;;;;;;;;;;;;;;;5034898;28;20008;-66
2021/06/13 05:18:19;;;;;;;;;;;;;;;;;;5034865;28;20285;-67
2021/06/13 05:20:52;;;;;;;;;;;;;;;;;;5034479;28;20353;-67
2021/06/13 05:23:19;;;;;;;;;;;;;;;;;;5034967;28;19925;-67
2021/06/13 05:25:46;;;;;;;;;;;;;;;;;;5069010;28;19925;-67
2021/06/13 05:28:13;;;;;;;;;;;;;;;;;;5074105;28;20011;-67
2021/06/13 05:30:40;;;;;;;;;;;;;;;;;;5074000;28;20372;-67
2021/06/13 05:33:07;;;;;;;;;;;;;;;;;;5074031;28;19925;-67
2021/06/13 05:35:34;;;;;;;;;;;;;;;;;;5074171;28;19924;-67
2021/06/13 05:38:01;;;;;;;;;;;;;;;;;;5074019;28;19935;-68
2021/06/13 05:40:28;;;;;;;;;;;;;;;;;;5073863;28;20376;-67
2021/06/13 05:42:55;;;;;;;;;;;;;;;;;;5073542;28;19924;-67
2021/06/13 05:45:22;;;;;;;;;;;;;;;;;;5073997;28;19933;-67
2021/06/13 05:47:49;;;;;;;;;;;;;;;;;;5074597;28;19924;-67
2021/06/13 05:50:16;;;;;;;;;;;;;;;;;;5073491;28;19924;-67
2021/06/13 05:52:43;;;;;;;;;;;;;;;;;;5073858;28;19932;-67
2021/06/13 05:55:10;;;;;;;;;;;;;;;;;;5073746;28;19924;-67
2021/06/13 05:57:37;;;;;;;;;;;;;;;;;;5073336;28;19931;-67
2021/06/13 06:00:04;;;;;;;;;;;;;;;;;;5073566;28;19924;-67
2021/06/13 06:02:31;;;;;;;;;;;;;;;;;;5073557;28;20015;-67
2021/06/13 06:04:58;;;;;;;;;;;;;;;;;;5073690;28;19924;-67
2021/06/13 06:07:25;;;;;;;;;;;;;;;;;;5064992;28;20274;-67
2021/06/13 06:09:51;;;;;;;;;;;;;;;;;;5053573;28;20024;-67
2021/06/13 06:12:18;;;;;;;;;;;;;;;;;;5053068;28;19924;-65
2021/06/13 06:14:46;;;;;;;;;;;;;;;;;;5053660;28;19924;-66
2021/06/13 06:17:13;;;;;;;;;;;;;;;;;;5052949;28;19978;-67
2021/06/13 06:19:40;;;;;;;;;;;;;;;;;;5052790;28;20027;-66
2021/06/13 06:22:07;;;;;;;;;;;;;;;;;;5052906;28;19925;-67
2021/06/13 06:24:34;;;;;;;;;;;;;;;;;;5059906;28;20380;-67
2021/06/13 06:27:01;;;;;;;;;;;;;;;;;;5072905;28;19924;-67
2021/06/13 06:29:28;;;;;;;;;;;;;;;;;;5072529;28;19924;-67
2021/06/13 06:31:54;;;;;;;;;;;;;;;;;;5072515;28;20019;-67
2021/06/13 06:34:21;;;;;;;;;;;;;;;;;;5072619;28;19935;-66
2021/06/13 06:36:48;;;;;;;;;;;;;;;;;;5072508;28;19924;-66
2021/06/13 06:39:15;;;;;;;;;;;;;;;;;;5072813;28;20015;-66
2021/06/13 06:41:42;;;;;;;;;;;;;;;;;;5073182;28;20014;-66
2021/06/13 06:44:09;;;;;;;;;;;;;;;;;;5072506;28;19947;-65
2021/06/13 06:46:36;;;;;;;;;;;;;;;;;;5072392;28;19924;-66
2021/06/13 06:49:03;;;;;;;;;;;;;;;;;;5072387;28;19932;-66
2021/06/13 06:51:30;;;;;;;;;;;;;;;;;;5072556;28;20011;-67
2021/06/13 06:53:57;;;;;;;;;;;;;;;;;;5071679;28;19925;-66
2021/06/13 06:56:24;;;;;;;;;;;;;;;;;;5071893;28;20303;-67
2021/06/13 06:58:51;;;;;;;;;;;;;;;;;;5072460;28;19936;-67
2021/06/13 07:01:18;;;;;;;;;;;;;;;;;;5072069;28;20312;-65
2021/06/13 07:03:45;;;;;;;;;;;;;;;;;;5072072;28;19931;-66
2021/06/13 07:06:12;;;;;;;;;;;;;;;;;;5072185;28;19928;-65
2021/06/13 07:08:39;;;;;;;;;;;;;;;;;;5053507;28;19924;-66
2021/06/13 07:11:06;;;;;;;;;;;;;;;;;;5052148;28;19935;-66
2021/06/13 07:13:33;;;;;;;;;;;;;;;;;;5051770;28;19931;-65
2021/06/13 07:16:00;;;;;;;;;;;;;;;;;;5051726;28;20300;-67
2021/06/13 07:18:27;;;;;;;;;;;;;;;;;;5051747;28;19925;-66
2021/06/13 07:20:54;;;;;;;;;;;;;;;;;;5051427;28;19925;-67
2021/06/13 07:23:21;;;;;;;;;;;;;;;;;;5052066;28;19931;-67
2021/06/13 07:25:48;;;;;;;;;;;;;;;;;;5069419;28;19924;-68
2021/06/13 07:28:15;;;;;;;;;;;;;;;;;;5071938;28;20327;-65
2021/06/13 07:30:42;;;;;;;;;;;;;;;;;;5071456;28;20026;-67
2021/06/13 07:33:09;;;;;;;;;;;;;;;;;;5071872;28;20291;-65
2021/06/13 07:35:36;;;;;;;;;;;;;;;;;;5071401;28;20388;-66
2021/06/13 07:38:03;;;;;;;;;;;;;;;;;;5071981;28;19930;-66
2021/06/13 07:40:30;;;;;;;;;;;;;;;;;;5071351;28;19924;-67
2021/06/13 07:42:57;;;;;;;;;;;;;;;;;;5071609;28;19924;-67
2021/06/13 07:45:24;;;;;;;;;;;;;;;;;;5071827;28;20392;-67
2021/06/13 07:47:51;;;;;;;;;;;;;;;;;;5071674;28;19964;-67
2021/06/13 07:50:18;;;;;;;;;;;;;;;;;;5071580;28;19931;-66
2021/06/13 07:52:45;;;;;;;;;;;;;;;;;;5071513;28;20014;-66
2021/06/13 07:55:13;;;;;;;;;;;;;;;;;;5071750;28;19963;-66
2021/06/13 07:57:42;;;;;;;;;;;;;;;;;;5071084;28;19931;-66
2021/06/13 08:00:09;;;;;;;;;;;;;;;;;;5071171;28;19970;-68
2021/06/13 08:02:36;;;;;;;;;;;;;;;;;;5071336;28;19929;-67
2021/06/13 08:05:08;;;;;;;;;;;;;;;;;;5071487;28;19925;-70
2021/06/13 08:07:35;;;;;;;;;;;;;;;;;;5064089;28;19960;-67
2021/06/13 08:10:01;;;;;;;;;;;;;;;;;;5055130;28;20293;-67
2021/06/13 08:12:28;;;;;;;;;;;;;;;;;;5055003;28;19925;-67
2021/06/13 08:14:56;;;;;;;;;;;;;;;;;;5054967;28;20007;-67
2021/06/13 08:17:23;;;;;;;;;;;;;;;;;;5054831;28;19937;-66
2021/06/13 08:19:50;;;;;;;;;;;;;;;;;;5054607;28;19924;-66
2021/06/13 08:22:17;;;;;;;;;;;;;;;;;;5055162;28;19932;-66
2021/06/13 08:24:43;;;;;;;;;;;;;;;;;;5063722;28;20343;-66
2021/06/13 08:27:10;;;;;;;;;;;;;;;;;;5074480;28;19931;-64
2021/06/13 08:29:39;;;;;;;;;;;;;;;;;;5074504;28;20403;-65
2021/06/13 08:32:06;;;;;;;;;;;;;;;;;;5074666;28;19925;-65
2021/06/13 08:34:33;;;;;;;;;;;;;;;;;;5074901;28;19925;-66
2021/06/13 08:37:00;;;;;;;;;;;;;;;;;;5074581;28;20024;-66
2021/06/13 08:39:27;;;;;;;;;;;;;;;;;;5074653;28;19925;-66
2021/06/13 08:41:54;;;;;;;;;;;;;;;;;;5074633;28;20019;-66
2021/06/13 08:44:22;;;;;;;;;;;;;;;;;;5074996;28;19929;-66
2021/06/13 08:46:49;;;;;;;;;;;;;;;;;;5074836;28;20024;-65
2021/06/13 08:49:16;;;;;;;;;;;;;;;;;;5074413;28;19950;-66
2021/06/13 08:51:45;;;;;;;;;;;;;;;;;;5074741;28;20387;-67
2021/06/13 08:54:12;;;;;;;;;;;;;;;;;;5074317;28;19925;-67
2021/06/13 08:56:39;;;;;;;;;;;;;;;;;;5074281;28;19956;-65
2021/06/13 08:59:06;;;;;;;;;;;;;;;;;;5074486;28;20281;-65
2021/06/13 09:01:33;;;;;;;;;;;;;;;;;;5074569;28;19951;-66
2021/06/13 09:04:00;;;;;;;;;;;;;;;;;;5074343;28;19924;-67
2021/06/13 09:06:27;;;;;;;;;;;;;;;;;;5073688;28;19932;-66
2021/06/13 09:08:54;;;;;;;;;;;;;;;;;;5054197;28;19931;-67
2021/06/13 09:11:21;;;;;;;;;;;;;;;;;;5054019;28;20019;-67
2021/06/13 09:13:48;;;;;;;;;;;;;;;;;;5054750;28;19924;-67
2021/06/13 09:16:15;;;;;;;;;;;;;;;;;;5075584;22;19928;-64
2021/06/13 09:18:42;;;;;;;;;;;;;;;;;;5073944;28;20255;-63
2021/06/13 09:21:10;;;;;;;;;;;;;;;;;;5073929;28;19929;-63
2021/06/13 09:23:38;;;;;;;;;;;;;;;;;;5074221;28;19924;-63
2021/06/13 09:26:05;;;;;;;;;;;;;;;;;;5094190;28;20345;-64
2021/06/13 09:28:32;;;;;;;;;;;;;;;;;;5094468;28;19924;-64
2021/06/13 09:30:59;;;;;;;;;;;;;;;;;;5094084;28;20039;-63
2021/06/13 09:33:26;;;;;;;;;;;;;;;;;;5094567;28;19932;-64
2021/06/13 09:35:53;;;;;;;;;;;;;;;;;;5094542;28;19924;-63
2021/06/13 09:38:20;;;;;;;;;;;;;;;;;;5093833;28;19924;-63
2021/06/13 09:40:47;;;;;;;;;;;;;;;;;;5099882;28;20364;-64
2021/06/13 09:43:14;;;;;;;;;;;;;;;;;;5100648;28;19927;-65
2021/06/13 09:45:41;;;;;;;;;;;;;;;;;;5098685;28;20019;-64
2021/06/13 09:48:08;;;;;;;;;;;;;;;;;;5094085;28;19924;-64
2021/06/13 09:50:35;;;;;;;;;;;;;;;;;;5100353;28;19928;-64
2021/06/13 09:53:02;;;;;;;;;;;;;;;;;;5102699;28;19979;-64
2021/06/13 09:55:29;;;;;;;;;;;;;;;;;;5103421;28;19924;-64
2021/06/13 09:57:56;;;;;;;;;;;;;;;;;;5100823;28;20022;-65
2021/06/13 10:00:23;;;;;;;;;;;;;;;;;;5093322;28;19928;-64
2021/06/13 10:02:50;;;;;;;;;;;;;;;;;;5093854;28;19946;-64
2021/06/13 10:05:17;;;;;;;;;;;;;;;;;;5093483;28;20308;-64
2021/06/13 10:07:44;;;;;;;;;;;;;;;;;;5082410;28;19935;-64
2021/06/13 10:10:11;;;;;;;;;;;;;;;;;;5073337;28;20024;-64
2021/06/13 10:12:38;;;;;;;;;;;;;;;;;;5073502;28;20398;-64
2021/06/13 10:15:05;;;;;;;;;;;;;;;;;;5073470;28;19928;-65
2021/06/13 10:17:32;;;;;;;;;;;;;;;;;;5072640;28;19974;-64
2021/06/13 10:19:59;;;;;;;;;;;;;;;;;;5072684;28;20004;-64
2021/06/13 10:22:27;;;;;;;;;;;;;;;;;;5073040;28;20288;-64
2021/06/13 10:24:54;;;;;;;;;;;;;;;;;;5085806;28;20391;-63
2021/06/13 10:27:21;;;;;;;;;;;;;;;;;;5097168;28;19924;-64
2021/06/13 10:29:48;;;;;;;;;;;;;;;;;;5093863;28;19924;-64
2021/06/13 10:32:17;;;;;;;;;;;;;;;;;;5094937;28;19931;-63
2021/06/13 10:34:44;;;;;;;;;;;;;;;;;;5092916;28;19924;-63
2021/06/13 10:37:11;;;;;;;;;;;;;;;;;;5093055;28;19924;-63
2021/06/13 10:39:38;;;;;;;;;;;;;;;;;;5092623;28;20037;-64
2021/06/13 10:42:05;;;;;;;;;;;;;;;;;;5093016;28;19924;-64
2021/06/13 10:44:31;;;;;;;;;;;;;;;;;;5092734;28;19924;-64
2021/06/13 10:46:58;;;;;;;;;;;;;;;;;;5092597;28;19924;-64
2021/06/13 10:49:26;;;;;;;;;;;;;;;;;;5092246;28;20032;-63
2021/06/13 10:51:58;;;;;;;;;;;;;;;;;;5092684;28;19927;-63
2021/06/13 10:54:25;;;;;;;;;;;;;;;;;;5092872;28;19924;-63
2021/06/13 10:56:52;;;;;;;;;;;;;;;;;;5092314;28;19931;-64
2021/06/13 10:59:20;;;;;;;;;;;;;;;;;;5092192;28;20356;-64
2021/06/13 11:01:47;;;;;;;;;;;;;;;;;;5092055;28;19973;-64
2021/06/13 11:04:14;;;;;;;;;;;;;;;;;;5092666;28;19924;-63
2021/06/13 11:06:43;;;;;;;;;;;;;;;;;;5090047;28;19971;-63
2021/06/13 11:09:13;;;;;;;;;;;;;;;;;;5071803;28;19998;-63
2021/06/13 11:11:41;;;;;;;;;;;;;;;;;;5072131;28;19975;-64
2021/06/13 11:14:08;;;;;;;;;;;;;;;;;;5071714;28;19932;-64
2021/06/13 11:16:35;;;;;;;;;;;;;;;;;;5071959;28;19925;-64
2021/06/13 11:19:02;;;;;;;;;;;;;;;;;;5071693;28;20391;-64
2021/06/13 11:21:29;;;;;;;;;;;;;;;;;;5072022;28;19947;-63
2021/06/13 11:23:57;;;;;;;;;;;;;;;;;;5073540;28;19928;-64
2021/06/13 11:26:23;;;;;;;;;;;;;;;;;;5091979;28;19924;-63
2021/06/13 11:28:50;;;;;;;;;;;;;;;;;;5091623;28;19971;-64
2021/06/13 11:31:17;;;;;;;;;;;;;;;;;;5091509;28;20380;-64
2021/06/13 11:33:47;;;;;;;;;;;;;;;;;;5091933;28;19924;-64
2021/06/13 11:36:14;;;;;;;;;;;;;;;;;;5091606;28;19924;-63
2021/06/13 11:38:41;;;;;;;;;;;;;;;;;;5091720;28;20414;-63
2021/06/13 11:41:08;;;;;;;;;;;;;;;;;;5091128;28;19924;-63
2021/06/13 11:43:35;;;;;;;;;;;;;;;;;;5091908;28;19934;-63
2021/06/13 11:46:03;;;;;;;;;;;;;;;;;;5091583;28;19924;-63
2021/06/13 11:48:30;;;;;;;;;;;;;;;;;;5091673;28;19924;-63
2021/06/13 11:50:57;;;;;;;;;;;;;;;;;;5091581;28;20007;-63
2021/06/13 11:53:24;;;;;;;;;;;;;;;;;;5091579;28;19976;-63
2021/06/13 11:55:51;;;;;;;;;;;;;;;;;;5091941;28;20403;-63
2021/06/13 11:58:18;;;;;;;;;;;;;;;;;;5091682;28;19931;-63
2021/06/13 12:00:45;;;;;;;;;;;;;;;;;;5091491;28;19930;-63
2021/06/13 12:03:12;;;;;;;;;;;;;;;;;;5091364;28;19924;-64
2021/06/13 12:05:40;;;;;;;;;;;;;;;;;;5091558;28;20303;-64
2021/06/13 12:08:07;;;;;;;;;;;;;;;;;;5076906;28;19933;-64
2021/06/13 12:10:34;;;;;;;;;;;;;;;;;;5071499;28;19924;-64
2021/06/13 12:13:01;;;;;;;;;;;;;;;;;;5071249;28;19928;-64
2021/06/13 12:15:28;;;;;;;;;;;;;;;;;;5071277;28;20315;-65
2021/06/13 12:17:55;;;;;;;;;;;;;;;;;;5071357;28;19924;-65
2021/06/13 12:20:22;;;;;;;;;;;;;;;;;;5070979;28;19924;-65
2021/06/13 12:22:53;;;;;;;;;;;;;;;;;;5071338;28;19925;-65
2021/06/13 12:28:05;;;;;;;;;;;;;;;;;;5071355;28;20382;-65
2021/06/13 12:30:32;;;;;;;;;;;;;;;;;;5071238;28;20023;-66
2021/06/13 12:32:59;;;;;;;;;;;;;;;;;;5071149;28;20352;-65
2021/06/13 12:35:26;;;;;;;;;;;;;;;;;;5070816;28;19928;-65
2021/06/13 12:37:53;;;;;;;;;;;;;;;;;;5071001;28;19947;-64
2021/06/13 12:40:20;;;;;;;;;;;;;;;;;;5070909;28;19924;-64
2021/06/13 12:42:47;;;;;;;;;;;;;;;;;;5071071;28;20307;-64
2021/06/13 12:45:14;;;;;;;;;;;;;;;;;;5070928;28;19970;-64
2021/06/13 12:47:41;;;;;;;;;;;;;;;;;;5070811;28;19924;-64
2021/06/13 12:50:08;;;;;;;;;;;;;;;;;;5070377;28;19925;-63
2021/06/13 12:52:36;;;;;;;;;;;;;;;;;;5071889;28;19924;-64
2021/06/13 12:55:04;;;;;;;;;;;;;;;;;;5074243;28;19924;-64
2021/06/13 12:57:31;;;;;;;;;;;;;;;;;;5074471;28;19925;-64
2021/06/13 12:59:58;;;;;;;;;;;;;;;;;;5073751;28;19931;-64
2021/06/13 13:02:25;;;;;;;;;;;;;;;;;;5074684;28;20380;-65
2021/06/13 13:04:52;;;;;;;;;;;;;;;;;;5074934;28;19979;-63
2021/06/13 13:07:19;;;;;;;;;;;;;;;;;;5074627;28;19924;-71
2021/06/13 13:09:46;;;;;;;;;;;;;;;;;;5074296;28;19925;-64
2021/06/13 13:12:13;;;;;;;;;;;;;;;;;;5074610;28;19925;-64
2021/06/13 13:14:40;;;;;;;;;;;;;;;;;;5074492;28;20476;-64
2021/06/13 13:17:07;;;;;;;;;;;;;;;;;;5073768;28;19928;-64
2021/06/13 13:19:35;;;;;;;;;;;;;;;;;;5074258;28;20170;-65
2021/06/13 13:22:02;;;;;;;;;;;;;;;;;;5074349;28;19925;-64
2021/06/13 13:24:30;;;;;;;;;;;;;;;;;;5074546;28;19925;-64
2021/06/13 13:26:57;;;;;;;;;;;;;;;;;;5074377;28;20111;-64
2021/06/13 13:29:24;;;;;;;;;;;;;;;;;;5073793;28;19924;-64
2021/06/13 13:31:50;;;;;;;;;;;;;;;;;;5074089;28;19924;-64
2021/06/13 13:34:17;;;;;;;;;;;;;;;;;;5073802;28;19928;-64
2021/06/13 13:36:46;;;;;;;;;;;;;;;;;;5073867;28;20418;-63
2021/06/13 13:39:13;;;;;;;;;;;;;;;;;;5073495;28;19928;-63
2021/06/13 13:41:40;;;;;;;;;;;;;;;;;;5073935;28;19947;-64
2021/06/13 13:44:07;;;;;;;;;;;;;;;;;;5073586;28;19928;-64
2021/06/13 13:46:34;;;;;;;;;;;;;;;;;;5074110;28;19924;-64
2021/06/13 13:49:01;;;;;;;;;;;;;;;;;;5073720;28;19931;-64
2021/06/13 13:51:28;;;;;;;;;;;;;;;;;;5073590;28;19928;-64
2021/06/13 13:53:55;;;;;;;;;;;;;;;;;;5073721;28;20411;-64
2021/06/13 13:56:22;;;;;;;;;;;;;;;;;;5073478;28;19929;-64
2021/06/13 13:58:49;;;;;;;;;;;;;;;;;;5073491;28;19976;-64
2021/06/13 14:01:16;;;;;;;;;;;;;;;;;;5073534;28;19928;-64
2021/06/13 14:03:43;;;;;;;;;;;;;;;;;;5072897;28;19931;-64
2021/06/13 14:06:13;;;;;;;;;;;;;;;;;;5073088;28;19931;-64
2021/06/13 14:08:40;;;;;;;;;;;;;;;;;;5073415;28;20311;-64
2021/06/13 14:11:07;;;;;;;;;;;;;;;;;;5073373;28;20319;-64
2021/06/13 14:13:34;;;;;;;;;;;;;;;;;;5073695;28;19924;-64
2021/06/13 14:16:01;;;;;;;;;;;;;;;;;;5073181;28;19999;-64
2021/06/13 14:18:28;;;;;;;;;;;;;;;;;;5073461;28;20035;-63
2021/06/13 14:20:55;;;;;;;;;;;;;;;;;;5073440;28;19972;-64
2021/06/13 14:23:22;;;;;;;;;;;;;;;;;;5073080;28;19924;-64
2021/06/13 14:25:50;;;;;;;;;;;;;;;;;;5072756;28;20359;-64
2021/06/13 14:28:17;;;;;;;;;;;;;;;;;;5073104;28;20018;-64
2021/06/13 14:30:44;;;;;;;;;;;;;;;;;;5073001;28;20019;-65
2021/06/13 14:33:11;;;;;;;;;;;;;;;;;;5073218;28;20402;-64
2021/06/13 14:35:38;;;;;;;;;;;;;;;;;;5073129;28;19924;-64
2021/06/13 14:38:05;;;;;;;;;;;;;;;;;;5073052;28;19924;-64
2021/06/13 14:40:32;;;;;;;;;;;;;;;;;;5072167;28;20304;-64
2021/06/13 14:42:59;;;;;;;;;;;;;;;;;;5073129;28;19931;-64
2021/06/13 14:45:26;;;;;;;;;;;;;;;;;;5072596;28;20019;-64
2021/06/13 14:47:53;;;;;;;;;;;;;;;;;;5072867;28;20015;-64
2021/06/13 14:50:20;;;;;;;;;;;;;;;;;;5072208;28;19925;-64
2021/06/13 14:52:47;;;;;;;;;;;;;;;;;;5072912;28;19983;-64
2021/06/13 14:55:14;;;;;;;;;;;;;;;;;;5075721;28;19932;-64
2021/06/13 14:57:41;;;;;;;;;;;;;;;;;;5073534;28;19931;-64
2021/06/13 15:00:08;;;;;;;;;;;;;;;;;;5074190;28;20011;-64
2021/06/13 15:02:35;;;;;;;;;;;;;;;;;;5072924;28;20354;-64
2021/06/13 15:05:02;;;;;;;;;;;;;;;;;;5075885;28;20256;-63
2021/06/13 15:07:28;;;;;;;;;;;;;;;;;;5076933;28;19924;-64
2021/06/13 15:09:55;;;;;;;;;;;;;;;;;;5076698;28;19928;-63
2021/06/13 15:12:22;;;;;;;;;;;;;;;;;;5076669;28;20023;-63
2021/06/13 15:14:50;;;;;;;;;;;;;;;;;;5072828;28;19924;-63
2021/06/13 15:17:17;;;;;;;;;;;;;;;;;;5072797;28;20327;-65
2021/06/13 15:19:44;;;;;;;;;;;;;;;;;;5071945;28;19971;-64
2021/06/13 15:22:11;;;;;;;;;;;;;;;;;;5072266;28;20344;-64
2021/06/13 15:24:38;;;;;;;;;;;;;;;;;;5072018;28;20015;-65
2021/06/13 15:27:06;;;;;;;;;;;;;;;;;;5072232;28;19935;-65
2021/06/13 15:29:33;;;;;;;;;;;;;;;;;;5071589;28;20299;-64
2021/06/13 15:32:00;;;;;;;;;;;;;;;;;;5071794;28;19931;-64
2021/06/13 15:34:27;;;;;;;;;;;;;;;;;;5072144;28;20023;-64
2021/06/13 15:36:54;;;;;;;;;;;;;;;;;;5071644;28;19947;-64
2021/06/13 15:39:21;;;;;;;;;;;;;;;;;;5071519;28;19928;-64
2021/06/13 15:41:48;;;;;;;;;;;;;;;;;;5072218;28;19924;-65
2021/06/13 15:44:15;;;;;;;;;;;;;;;;;;5071885;28;20373;-64
2021/06/13 15:46:42;;;;;;;;;;;;;;;;;;5071739;28;19971;-65
2021/06/13 15:49:10;;;;;;;;;;;;;;;;;;5071492;28;19932;-63
2021/06/13 15:51:37;;;;;;;;;;;;;;;;;;5071919;28;19928;-65
2021/06/13 15:54:05;;;;;;;;;;;;;;;;;;5071355;28;19931;-65
2021/06/13 15:56:32;;;;;;;;;;;;;;;;;;5071483;28;19924;-65
2021/06/13 15:59:00;;;;;;;;;;;;;;;;;;5071477;28;20422;-65
2021/06/13 16:01:27;;;;;;;;;;;;;;;;;;5071403;28;20020;-65
2021/06/13 16:03:55;;;;;;;;;;;;;;;;;;5071086;28;19979;-65
2021/06/13 16:06:22;;;;;;;;;;;;;;;;;;5075890;28;19925;-64
2021/06/13 16:08:49;;;;;;;;;;;;;;;;;;5077423;28;19931;-65
2021/06/13 16:11:16;;;;;;;;;;;;;;;;;;5076234;28;20015;-65
2021/06/13 16:13:43;;;;;;;;;;;;;;;;;;5073012;28;20412;-65
2021/06/13 16:16:10;;;;;;;;;;;;;;;;;;5071269;28;20010;-65
2021/06/13 16:18:37;;;;;;;;;;;;;;;;;;5071198;28;19987;-65
2021/06/13 16:21:04;;;;;;;;;;;;;;;;;;5071271;28;19931;-65
2021/06/13 16:23:31;;;;;;;;;;;;;;;;;;5071563;28;19968;-65
2021/06/13 16:25:58;;;;;;;;;;;;;;;;;;5071170;28;20011;-65
2021/06/13 16:28:26;;;;;;;;;;;;;;;;;;5073442;28;19930;-64
2021/06/13 16:30:53;;;;;;;;;;;;;;;;;;5074528;28;19975;-63
2021/06/13 16:33:20;;;;;;;;;;;;;;;;;;5075233;28;19924;-64
2021/06/13 16:35:47;;;;;;;;;;;;;;;;;;5075130;28;19930;-65
2021/06/13 16:38:14;;;;;;;;;;;;;;;;;;5074576;28;20019;-64
2021/06/13 16:40:42;;;;;;;;;;;;;;;;;;5074316;28;19925;-64
2021/06/13 16:43:09;;;;;;;;;;;;;;;;;;5074827;28;20015;-64
2021/06/13 16:45:36;;;;;;;;;;;;;;;;;;5074336;28;20464;-64